sensor_id;sensor_type;location;lat;lon;timestamp;P1;durP1;ratioP1;P2;durP2;ratioP2
9438;SDS011;5176;42.622;25.386;2023-05-10T00:01:19;5.73;;;5.00;;
9438;SDS011;5176;42.622;25.386;2023-05-10T00:03:48;6.20;;;5.07;;
9438;SDS011;5176;42.622;25.386;2023-05-10T00:06:16;6.10;;;5.23;;
9438;SDS011;5176;42.622;25.386;2023-05-10T00:08:45;5.90;;;4.83;;
9438;SDS011;5176;42.622;25.386;2023-05-10T00:11:14;6.37;;;4.93;;
9438;SDS011;5176;42.622;25.386;2023-05-10T00:13:43;6.43;;;5.40;;
9438;SDS011;5176;42.622;25.386;2023-05-10T00:16:13;6.23;;;5.57;;
9438;SDS011;5176;42.622;25.386;2023-05-10T00:18:41;6.03;;;5.30;;
9438;SDS011;5176;42.622;25.386;2023-05-10T00:21:10;5.67;;;5.10;;
9438;SDS011;5176;42.622;25.386;2023-05-10T00:23:40;5.87;;;5.27;;
9438;SDS011;5176;42.622;25.386;2023-05-10T00:26:09;5.97;;;4.97;;
9438;SDS011;5176;42.622;25.386;2023-05-10T00:28:37;5.27;;;4.80;;
9438;SDS011;5176;42.622;25.386;2023-05-10T00:31:07;6.43;;;5.00;;
9438;SDS011;5176;42.622;25.386;2023-05-10T00:33:37;6.00;;;5.37;;
9438;SDS011;5176;42.622;25.386;2023-05-10T00:36:07;6.60;;;5.17;;
9438;SDS011;5176;42.622;25.386;2023-05-10T00:38:35;7.63;;;5.40;;
9438;SDS011;5176;42.622;25.386;2023-05-10T00:41:05;8.00;;;5.40;;
9438;SDS011;5176;42.622;25.386;2023-05-10T00:43:34;9.50;;;5.30;;
9438;SDS011;5176;42.622;25.386;2023-05-10T00:46:04;6.30;;;5.50;;
9438;SDS011;5176;42.622;25.386;2023-05-10T00:48:33;6.53;;;5.33;;
9438;SDS011;5176;42.622;25.386;2023-05-10T00:51:03;5.60;;;5.10;;
9438;SDS011;5176;42.622;25.386;2023-05-10T00:53:32;6.47;;;5.67;;
9438;SDS011;5176;42.622;25.386;2023-05-10T00:56:03;6.20;;;5.60;;
9438;SDS011;5176;42.622;25.386;2023-05-10T00:58:32;7.13;;;4.90;;
9438;SDS011;5176;42.622;25.386;2023-05-10T01:01:00;6.77;;;5.40;;
9438;SDS011;5176;42.622;25.386;2023-05-10T01:03:29;9.07;;;5.60;;
9438;SDS011;5176;42.622;25.386;2023-05-10T01:05:59;5.60;;;5.10;;
9438;SDS011;5176;42.622;25.386;2023-05-10T01:08:29;8.53;;;5.17;;
9438;SDS011;5176;42.622;25.386;2023-05-10T01:10:58;7.07;;;5.77;;
9438;SDS011;5176;42.622;25.386;2023-05-10T01:13:30;5.53;;;4.87;;
9438;SDS011;5176;42.622;25.386;2023-05-10T01:16:01;10.60;;;5.53;;
9438;SDS011;5176;42.622;25.386;2023-05-10T01:18:30;9.13;;;5.23;;
9438;SDS011;5176;42.622;25.386;2023-05-10T01:21:06;9.13;;;5.83;;
9438;SDS011;5176;42.622;25.386;2023-05-10T01:30:12;5.77;;;5.27;;
9438;SDS011;5176;42.622;25.386;2023-05-10T01:33:14;7.57;;;5.20;;
9438;SDS011;5176;42.622;25.386;2023-05-10T01:35:50;6.80;;;4.93;;
9438;SDS011;5176;42.622;25.386;2023-05-10T01:38:23;7.47;;;5.07;;
9438;SDS011;5176;42.622;25.386;2023-05-10T01:41:01;6.23;;;5.03;;
9438;SDS011;5176;42.622;25.386;2023-05-10T01:43:45;9.17;;;5.13;;
9438;SDS011;5176;42.622;25.386;2023-05-10T01:46:28;5.63;;;4.50;;
9438;SDS011;5176;42.622;25.386;2023-05-10T01:49:08;6.47;;;5.33;;
9438;SDS011;5176;42.622;25.386;2023-05-10T01:51:40;7.17;;;5.00;;
9438;SDS011;5176;42.622;25.386;2023-05-10T01:54:14;6.27;;;5.13;;
9438;SDS011;5176;42.622;25.386;2023-05-10T01:56:47;7.47;;;4.93;;
9438;SDS011;5176;42.622;25.386;2023-05-10T01:59:20;7.87;;;5.37;;
9438;SDS011;5176;42.622;25.386;2023-05-10T02:01:51;6.40;;;4.57;;
9438;SDS011;5176;42.622;25.386;2023-05-10T02:04:22;5.43;;;4.87;;
9438;SDS011;5176;42.622;25.386;2023-05-10T02:06:53;7.37;;;5.20;;
9438;SDS011;5176;42.622;25.386;2023-05-10T02:09:23;7.10;;;5.40;;
9438;SDS011;5176;42.622;25.386;2023-05-10T02:11:56;5.50;;;4.90;;
9438;SDS011;5176;42.622;25.386;2023-05-10T02:14:28;5.80;;;5.10;;
9438;SDS011;5176;42.622;25.386;2023-05-10T02:17:00;5.33;;;4.83;;
9438;SDS011;5176;42.622;25.386;2023-05-10T02:19:36;7.43;;;4.60;;
9438;SDS011;5176;42.622;25.386;2023-05-10T02:22:08;9.53;;;5.70;;
9438;SDS011;5176;42.622;25.386;2023-05-10T02:24:38;8.00;;;4.70;;
9438;SDS011;5176;42.622;25.386;2023-05-10T02:27:07;6.73;;;5.03;;
9438;SDS011;5176;42.622;25.386;2023-05-10T02:29:38;6.57;;;5.10;;
9438;SDS011;5176;42.622;25.386;2023-05-10T02:32:07;6.27;;;4.63;;
9438;SDS011;5176;42.622;25.386;2023-05-10T02:34:40;5.83;;;4.80;;
9438;SDS011;5176;42.622;25.386;2023-05-10T02:37:11;7.47;;;5.10;;
9438;SDS011;5176;42.622;25.386;2023-05-10T02:39:41;6.13;;;5.23;;
9438;SDS011;5176;42.622;25.386;2023-05-10T02:42:13;5.43;;;4.93;;
9438;SDS011;5176;42.622;25.386;2023-05-10T02:44:45;6.37;;;5.40;;
9438;SDS011;5176;42.622;25.386;2023-05-10T02:47:16;7.80;;;5.53;;
9438;SDS011;5176;42.622;25.386;2023-05-10T02:49:48;7.03;;;5.73;;
9438;SDS011;5176;42.622;25.386;2023-05-10T02:52:19;6.07;;;5.47;;
9438;SDS011;5176;42.622;25.386;2023-05-10T02:54:52;8.93;;;5.97;;
9438;SDS011;5176;42.622;25.386;2023-05-10T02:57:27;5.50;;;4.87;;
9438;SDS011;5176;42.622;25.386;2023-05-10T03:00:00;8.53;;;5.80;;
9438;SDS011;5176;42.622;25.386;2023-05-10T03:02:30;6.20;;;5.60;;
9438;SDS011;5176;42.622;25.386;2023-05-10T03:05:00;6.33;;;5.50;;
9438;SDS011;5176;42.622;25.386;2023-05-10T03:07:29;6.33;;;5.73;;
9438;SDS011;5176;42.622;25.386;2023-05-10T03:09:57;7.33;;;5.73;;
9438;SDS011;5176;42.622;25.386;2023-05-10T03:12:33;8.67;;;5.87;;
9438;SDS011;5176;42.622;25.386;2023-05-10T03:15:17;7.10;;;6.27;;
9438;SDS011;5176;42.622;25.386;2023-05-10T03:17:52;11.27;;;9.17;;
9438;SDS011;5176;42.622;25.386;2023-05-10T03:20:26;7.73;;;6.10;;
9438;SDS011;5176;42.622;25.386;2023-05-10T03:23:00;9.17;;;6.33;;
9438;SDS011;5176;42.622;25.386;2023-05-10T03:25:32;10.03;;;5.70;;
9438;SDS011;5176;42.622;25.386;2023-05-10T03:28:02;7.40;;;5.37;;
9438;SDS011;5176;42.622;25.386;2023-05-10T03:30:33;10.50;;;6.93;;
9438;SDS011;5176;42.622;25.386;2023-05-10T03:33:05;6.77;;;5.67;;
9438;SDS011;5176;42.622;25.386;2023-05-10T03:35:36;6.57;;;5.93;;
9438;SDS011;5176;42.622;25.386;2023-05-10T03:38:04;9.90;;;6.40;;
9438;SDS011;5176;42.622;25.386;2023-05-10T03:40:33;7.17;;;6.43;;
9438;SDS011;5176;42.622;25.386;2023-05-10T03:43:02;7.67;;;5.70;;
9438;SDS011;5176;42.622;25.386;2023-05-10T03:45:30;6.97;;;5.40;;
9438;SDS011;5176;42.622;25.386;2023-05-10T03:47:59;8.70;;;6.77;;
9438;SDS011;5176;42.622;25.386;2023-05-10T03:50:28;8.27;;;6.60;;
9438;SDS011;5176;42.622;25.386;2023-05-10T03:52:58;11.40;;;7.50;;
9438;SDS011;5176;42.622;25.386;2023-05-10T03:55:27;9.40;;;6.60;;
9438;SDS011;5176;42.622;25.386;2023-05-10T03:57:56;7.47;;;6.13;;
9438;SDS011;5176;42.622;25.386;2023-05-10T04:00:25;6.07;;;5.37;;
9438;SDS011;5176;42.622;25.386;2023-05-10T04:02:53;5.60;;;4.90;;
9438;SDS011;5176;42.622;25.386;2023-05-10T04:05:22;13.97;;;5.13;;
9438;SDS011;5176;42.622;25.386;2023-05-10T04:07:53;7.20;;;5.03;;
9438;SDS011;5176;42.622;25.386;2023-05-10T04:10:23;8.37;;;7.47;;
9438;SDS011;5176;42.622;25.386;2023-05-10T04:12:51;7.00;;;6.30;;
9438;SDS011;5176;42.622;25.386;2023-05-10T04:15:20;6.83;;;5.43;;
9438;SDS011;5176;42.622;25.386;2023-05-10T04:17:49;5.50;;;5.00;;
9438;SDS011;5176;42.622;25.386;2023-05-10T04:20:17;8.50;;;5.87;;
9438;SDS011;5176;42.622;25.386;2023-05-10T04:22:47;8.80;;;6.47;;
9438;SDS011;5176;42.622;25.386;2023-05-10T04:25:15;13.40;;;7.87;;
9438;SDS011;5176;42.622;25.386;2023-05-10T04:27:46;14.63;;;7.27;;
9438;SDS011;5176;42.622;25.386;2023-05-10T04:30:15;7.27;;;5.03;;
9438;SDS011;5176;42.622;25.386;2023-05-10T04:32:44;9.10;;;6.13;;
9438;SDS011;5176;42.622;25.386;2023-05-10T04:35:13;7.20;;;4.83;;
9438;SDS011;5176;42.622;25.386;2023-05-10T04:37:42;10.03;;;8.43;;
9438;SDS011;5176;42.622;25.386;2023-05-10T04:40:11;6.97;;;6.27;;
9438;SDS011;5176;42.622;25.386;2023-05-10T04:42:40;6.87;;;6.10;;
9438;SDS011;5176;42.622;25.386;2023-05-10T04:45:10;8.20;;;5.57;;
9438;SDS011;5176;42.622;25.386;2023-05-10T04:47:41;8.30;;;5.53;;
9438;SDS011;5176;42.622;25.386;2023-05-10T04:50:09;9.57;;;5.77;;
9438;SDS011;5176;42.622;25.386;2023-05-10T04:52:38;9.97;;;5.67;;
9438;SDS011;5176;42.622;25.386;2023-05-10T04:55:07;7.77;;;5.43;;
9438;SDS011;5176;42.622;25.386;2023-05-10T04:57:36;5.97;;;4.90;;
9438;SDS011;5176;42.622;25.386;2023-05-10T05:00:06;7.33;;;5.70;;
9438;SDS011;5176;42.622;25.386;2023-05-10T05:02:37;6.43;;;5.80;;
9438;SDS011;5176;42.622;25.386;2023-05-10T05:05:06;10.57;;;6.20;;
9438;SDS011;5176;42.622;25.386;2023-05-10T05:07:35;8.43;;;5.70;;
9438;SDS011;5176;42.622;25.386;2023-05-10T05:10:04;6.17;;;5.60;;
9438;SDS011;5176;42.622;25.386;2023-05-10T05:12:33;6.73;;;5.73;;
9438;SDS011;5176;42.622;25.386;2023-05-10T05:15:02;7.77;;;6.33;;
9438;SDS011;5176;42.622;25.386;2023-05-10T05:17:32;10.77;;;8.17;;
9438;SDS011;5176;42.622;25.386;2023-05-10T05:20:02;11.13;;;9.50;;
9438;SDS011;5176;42.622;25.386;2023-05-10T05:22:32;10.03;;;6.77;;
9438;SDS011;5176;42.622;25.386;2023-05-10T05:25:01;5.63;;;5.13;;
9438;SDS011;5176;42.622;25.386;2023-05-10T05:27:30;7.07;;;5.37;;
9438;SDS011;5176;42.622;25.386;2023-05-10T05:29:59;9.93;;;5.47;;
9438;SDS011;5176;42.622;25.386;2023-05-10T05:32:28;7.87;;;4.97;;
9438;SDS011;5176;42.622;25.386;2023-05-10T05:34:57;5.83;;;5.23;;
9438;SDS011;5176;42.622;25.386;2023-05-10T05:37:28;6.97;;;5.77;;
9438;SDS011;5176;42.622;25.386;2023-05-10T05:39:57;8.73;;;5.80;;
9438;SDS011;5176;42.622;25.386;2023-05-10T05:42:27;7.90;;;5.50;;
9438;SDS011;5176;42.622;25.386;2023-05-10T05:44:56;9.47;;;5.83;;
9438;SDS011;5176;42.622;25.386;2023-05-10T05:47:25;6.40;;;5.80;;
9438;SDS011;5176;42.622;25.386;2023-05-10T05:49:54;9.27;;;5.20;;
9438;SDS011;5176;42.622;25.386;2023-05-10T05:52:23;7.83;;;5.30;;
9438;SDS011;5176;42.622;25.386;2023-05-10T05:54:53;6.17;;;5.50;;
9438;SDS011;5176;42.622;25.386;2023-05-10T05:57:21;5.87;;;5.27;;
9438;SDS011;5176;42.622;25.386;2023-05-10T05:59:51;6.57;;;5.20;;
9438;SDS011;5176;42.622;25.386;2023-05-10T06:02:19;5.60;;;5.10;;
9438;SDS011;5176;42.622;25.386;2023-05-10T06:04:48;8.53;;;5.50;;
9438;SDS011;5176;42.622;25.386;2023-05-10T06:07:17;6.47;;;5.40;;
9438;SDS011;5176;42.622;25.386;2023-05-10T06:09:45;7.27;;;5.70;;
9438;SDS011;5176;42.622;25.386;2023-05-10T06:12:15;8.57;;;5.80;;
9438;SDS011;5176;42.622;25.386;2023-05-10T06:14:44;7.03;;;5.10;;
9438;SDS011;5176;42.622;25.386;2023-05-10T06:17:13;8.20;;;5.73;;
9438;SDS011;5176;42.622;25.386;2023-05-10T06:19:42;7.00;;;5.33;;
9438;SDS011;5176;42.622;25.386;2023-05-10T06:22:10;9.83;;;5.60;;
9438;SDS011;5176;42.622;25.386;2023-05-10T06:24:39;5.67;;;5.17;;
9438;SDS011;5176;42.622;25.386;2023-05-10T06:27:08;9.67;;;5.67;;
9438;SDS011;5176;42.622;25.386;2023-05-10T06:29:38;6.47;;;5.33;;
9438;SDS011;5176;42.622;25.386;2023-05-10T06:32:06;7.73;;;6.10;;
9438;SDS011;5176;42.622;25.386;2023-05-10T06:34:35;8.43;;;6.67;;
9438;SDS011;5176;42.622;25.386;2023-05-10T06:37:04;9.97;;;6.20;;
9438;SDS011;5176;42.622;25.386;2023-05-10T06:39:33;7.47;;;5.10;;
9438;SDS011;5176;42.622;25.386;2023-05-10T06:42:02;6.63;;;5.97;;
9438;SDS011;5176;42.622;25.386;2023-05-10T06:44:32;6.53;;;5.67;;
9438;SDS011;5176;42.622;25.386;2023-05-10T06:47:02;7.23;;;5.60;;
9438;SDS011;5176;42.622;25.386;2023-05-10T06:49:31;6.13;;;4.93;;
9438;SDS011;5176;42.622;25.386;2023-05-10T06:52:00;5.80;;;5.20;;
9438;SDS011;5176;42.622;25.386;2023-05-10T06:54:28;5.50;;;4.90;;
9438;SDS011;5176;42.622;25.386;2023-05-10T06:56:57;7.93;;;5.13;;
9438;SDS011;5176;42.622;25.386;2023-05-10T06:59:25;6.17;;;5.00;;
9438;SDS011;5176;42.622;25.386;2023-05-10T07:01:55;7.67;;;5.30;;
9438;SDS011;5176;42.622;25.386;2023-05-10T07:04:25;5.80;;;5.30;;
9438;SDS011;5176;42.622;25.386;2023-05-10T07:06:54;6.53;;;5.83;;
9438;SDS011;5176;42.622;25.386;2023-05-10T07:09:23;6.30;;;5.50;;
9438;SDS011;5176;42.622;25.386;2023-05-10T07:11:53;9.07;;;5.30;;
9438;SDS011;5176;42.622;25.386;2023-05-10T07:14:21;6.10;;;5.50;;
9438;SDS011;5176;42.622;25.386;2023-05-10T07:16:50;6.70;;;4.90;;
9438;SDS011;5176;42.622;25.386;2023-05-10T07:19:19;5.60;;;5.10;;
9438;SDS011;5176;42.622;25.386;2023-05-10T07:21:49;8.07;;;5.33;;
9438;SDS011;5176;42.622;25.386;2023-05-10T07:24:18;5.67;;;5.10;;
9438;SDS011;5176;42.622;25.386;2023-05-10T07:26:46;5.87;;;5.27;;
9438;SDS011;5176;42.622;25.386;2023-05-10T07:29:15;6.87;;;5.10;;
9438;SDS011;5176;42.622;25.386;2023-05-10T07:31:44;8.80;;;7.87;;
9438;SDS011;5176;42.622;25.386;2023-05-10T07:34:12;6.17;;;4.73;;
9438;SDS011;5176;42.622;25.386;2023-05-10T07:36:41;5.17;;;4.47;;
9438;SDS011;5176;42.622;25.386;2023-05-10T07:39:11;5.47;;;4.70;;
9438;SDS011;5176;42.622;25.386;2023-05-10T07:41:40;6.00;;;4.17;;
9438;SDS011;5176;42.622;25.386;2023-05-10T07:44:09;8.40;;;5.10;;
9438;SDS011;5176;42.622;25.386;2023-05-10T07:46:37;4.90;;;4.43;;
9438;SDS011;5176;42.622;25.386;2023-05-10T07:49:06;7.73;;;4.23;;
9438;SDS011;5176;42.622;25.386;2023-05-10T07:51:35;4.47;;;4.07;;
9438;SDS011;5176;42.622;25.386;2023-05-10T07:54:04;6.37;;;4.50;;
9438;SDS011;5176;42.622;25.386;2023-05-10T07:56:34;5.30;;;4.67;;
9438;SDS011;5176;42.622;25.386;2023-05-10T07:59:03;5.73;;;4.60;;
9438;SDS011;5176;42.622;25.386;2023-05-10T08:01:33;5.20;;;4.70;;
9438;SDS011;5176;42.622;25.386;2023-05-10T08:04:02;7.60;;;5.17;;
9438;SDS011;5176;42.622;25.386;2023-05-10T08:06:31;5.10;;;4.70;;
9438;SDS011;5176;42.622;25.386;2023-05-10T08:08:59;4.37;;;3.97;;
9438;SDS011;5176;42.622;25.386;2023-05-10T08:11:28;6.37;;;5.40;;
9438;SDS011;5176;42.622;25.386;2023-05-10T08:13:59;4.70;;;4.30;;
9438;SDS011;5176;42.622;25.386;2023-05-10T08:16:28;4.47;;;4.07;;
9438;SDS011;5176;42.622;25.386;2023-05-10T08:18:56;4.77;;;4.37;;
9438;SDS011;5176;42.622;25.386;2023-05-10T08:21:24;5.50;;;4.43;;
9438;SDS011;5176;42.622;25.386;2023-05-10T08:23:54;4.77;;;4.37;;
9438;SDS011;5176;42.622;25.386;2023-05-10T08:26:23;4.87;;;4.37;;
9438;SDS011;5176;42.622;25.386;2023-05-10T08:28:52;4.63;;;4.23;;
9438;SDS011;5176;42.622;25.386;2023-05-10T08:31:22;4.70;;;4.30;;
9438;SDS011;5176;42.622;25.386;2023-05-10T08:33:51;3.90;;;3.60;;
9438;SDS011;5176;42.622;25.386;2023-05-10T08:36:20;6.83;;;4.83;;
9438;SDS011;5176;42.622;25.386;2023-05-10T08:38:50;4.60;;;4.20;;
9438;SDS011;5176;42.622;25.386;2023-05-10T08:41:19;4.93;;;4.33;;
9438;SDS011;5176;42.622;25.386;2023-05-10T08:43:50;6.17;;;4.63;;
9438;SDS011;5176;42.622;25.386;2023-05-10T08:46:19;4.03;;;3.73;;
9438;SDS011;5176;42.622;25.386;2023-05-10T08:48:50;10.23;;;4.47;;
9438;SDS011;5176;42.622;25.386;2023-05-10T08:51:22;3.97;;;3.53;;
9438;SDS011;5176;42.622;25.386;2023-05-10T08:53:53;4.10;;;3.80;;
9438;SDS011;5176;42.622;25.386;2023-05-10T08:56:22;4.03;;;3.73;;
9438;SDS011;5176;42.622;25.386;2023-05-10T08:58:51;8.37;;;3.83;;
9438;SDS011;5176;42.622;25.386;2023-05-10T09:01:22;3.30;;;3.10;;
9438;SDS011;5176;42.622;25.386;2023-05-10T09:03:51;4.10;;;3.70;;
9438;SDS011;5176;42.622;25.386;2023-05-10T09:06:20;3.93;;;3.63;;
9438;SDS011;5176;42.622;25.386;2023-05-10T09:08:49;3.97;;;3.67;;
9438;SDS011;5176;42.622;25.386;2023-05-10T09:11:20;3.43;;;3.13;;
9438;SDS011;5176;42.622;25.386;2023-05-10T09:13:48;3.47;;;3.17;;
9438;SDS011;5176;42.622;25.386;2023-05-10T09:16:18;4.63;;;3.67;;
9438;SDS011;5176;42.622;25.386;2023-05-10T09:18:49;3.90;;;3.60;;
9438;SDS011;5176;42.622;25.386;2023-05-10T09:21:18;4.10;;;3.70;;
9438;SDS011;5176;42.622;25.386;2023-05-10T09:23:48;3.95;;;3.50;;
9438;SDS011;5176;42.622;25.386;2023-05-10T09:26:22;4.20;;;3.50;;
9438;SDS011;5176;42.622;25.386;2023-05-10T09:28:51;4.40;;;3.43;;
9438;SDS011;5176;42.622;25.386;2023-05-10T09:31:22;3.90;;;3.50;;
9438;SDS011;5176;42.622;25.386;2023-05-10T09:33:53;4.00;;;3.40;;
9438;SDS011;5176;42.622;25.386;2023-05-10T09:36:22;3.97;;;3.60;;
9438;SDS011;5176;42.622;25.386;2023-05-10T09:38:51;5.13;;;3.80;;
9438;SDS011;5176;42.622;25.386;2023-05-10T09:41:21;4.53;;;3.60;;
9438;SDS011;5176;42.622;25.386;2023-05-10T09:43:55;4.57;;;3.70;;
9438;SDS011;5176;42.622;25.386;2023-05-10T09:46:23;6.37;;;3.97;;
9438;SDS011;5176;42.622;25.386;2023-05-10T09:48:53;5.00;;;3.77;;
9438;SDS011;5176;42.622;25.386;2023-05-10T09:51:22;3.67;;;3.30;;
9438;SDS011;5176;42.622;25.386;2023-05-10T09:54:08;4.33;;;3.50;;
9438;SDS011;5176;42.622;25.386;2023-05-10T09:56:39;3.60;;;3.30;;
9438;SDS011;5176;42.622;25.386;2023-05-10T09:59:08;4.20;;;3.80;;
9438;SDS011;5176;42.622;25.386;2023-05-10T10:01:38;3.77;;;3.50;;
9438;SDS011;5176;42.622;25.386;2023-05-10T10:04:09;5.93;;;3.63;;
9438;SDS011;5176;42.622;25.386;2023-05-10T10:06:38;5.10;;;3.70;;
9438;SDS011;5176;42.622;25.386;2023-05-10T10:09:07;3.43;;;3.13;;
9438;SDS011;5176;42.622;25.386;2023-05-10T10:11:36;3.87;;;3.50;;
9438;SDS011;5176;42.622;25.386;2023-05-10T10:14:07;4.40;;;4.00;;
9438;SDS011;5176;42.622;25.386;2023-05-10T10:16:37;3.80;;;3.50;;
9438;SDS011;5176;42.622;25.386;2023-05-10T10:19:04;4.20;;;3.60;;
9438;SDS011;5176;42.622;25.386;2023-05-10T10:21:36;4.20;;;3.90;;
9438;SDS011;5176;42.622;25.386;2023-05-10T10:24:05;7.63;;;4.00;;
9438;SDS011;5176;42.622;25.386;2023-05-10T10:26:36;4.40;;;3.33;;
9438;SDS011;5176;42.622;25.386;2023-05-10T10:29:20;4.40;;;3.40;;
9438;SDS011;5176;42.622;25.386;2023-05-10T10:31:57;3.73;;;3.43;;
9438;SDS011;5176;42.622;25.386;2023-05-10T10:34:36;3.57;;;2.93;;
9438;SDS011;5176;42.622;25.386;2023-05-10T10:37:09;3.33;;;3.07;;
9438;SDS011;5176;42.622;25.386;2023-05-10T10:39:37;4.43;;;3.73;;
9438;SDS011;5176;42.622;25.386;2023-05-10T10:42:06;3.63;;;3.23;;
9438;SDS011;5176;42.622;25.386;2023-05-10T10:44:37;3.57;;;3.27;;
9438;SDS011;5176;42.622;25.386;2023-05-10T10:47:23;3.67;;;3.37;;
9438;SDS011;5176;42.622;25.386;2023-05-10T10:50:05;3.30;;;2.97;;
9438;SDS011;5176;42.622;25.386;2023-05-10T10:52:37;3.47;;;3.17;;
9438;SDS011;5176;42.622;25.386;2023-05-10T10:55:08;4.50;;;3.63;;
9438;SDS011;5176;42.622;25.386;2023-05-10T10:57:43;5.20;;;3.40;;
9438;SDS011;5176;42.622;25.386;2023-05-10T11:03:04;4.80;;;3.83;;
9438;SDS011;5176;42.622;25.386;2023-05-10T11:05:37;3.73;;;3.40;;
9438;SDS011;5176;42.622;25.386;2023-05-10T11:08:13;9.40;;;3.77;;
9438;SDS011;5176;42.622;25.386;2023-05-10T11:11:03;4.23;;;3.83;;
9438;SDS011;5176;42.622;25.386;2023-05-10T11:13:38;4.37;;;3.70;;
9438;SDS011;5176;42.622;25.386;2023-05-10T11:16:10;5.03;;;3.60;;
9438;SDS011;5176;42.622;25.386;2023-05-10T11:18:56;3.93;;;3.63;;
9438;SDS011;5176;42.622;25.386;2023-05-10T11:21:28;5.17;;;3.37;;
9438;SDS011;5176;42.622;25.386;2023-05-10T11:23:59;3.97;;;3.67;;
9438;SDS011;5176;42.622;25.386;2023-05-10T11:26:33;6.27;;;3.30;;
9438;SDS011;5176;42.622;25.386;2023-05-10T11:29:03;3.50;;;3.20;;
9438;SDS011;5176;42.622;25.386;2023-05-10T11:31:32;3.77;;;3.40;;
9438;SDS011;5176;42.622;25.386;2023-05-10T11:34:02;3.40;;;3.10;;
9438;SDS011;5176;42.622;25.386;2023-05-10T11:36:33;3.20;;;3.00;;
9438;SDS011;5176;42.622;25.386;2023-05-10T11:39:03;3.20;;;3.00;;
9438;SDS011;5176;42.622;25.386;2023-05-10T11:41:33;3.97;;;3.27;;
9438;SDS011;5176;42.622;25.386;2023-05-10T11:44:03;3.47;;;3.17;;
9438;SDS011;5176;42.622;25.386;2023-05-10T11:46:32;7.05;;;3.45;;
9438;SDS011;5176;42.622;25.386;2023-05-10T11:49:01;3.40;;;3.20;;
9438;SDS011;5176;42.622;25.386;2023-05-10T11:51:32;3.90;;;3.25;;
9438;SDS011;5176;42.622;25.386;2023-05-10T11:54:05;5.27;;;3.40;;
9438;SDS011;5176;42.622;25.386;2023-05-10T11:56:36;3.38;;;3.08;;
9438;SDS011;5176;42.622;25.386;2023-05-10T11:59:05;3.42;;;3.10;;
9438;SDS011;5176;42.622;25.386;2023-05-10T12:01:36;5.25;;;2.80;;
9438;SDS011;5176;42.622;25.386;2023-05-10T12:04:05;3.30;;;3.00;;
9438;SDS011;5176;42.622;25.386;2023-05-10T12:06:36;3.95;;;3.63;;
9438;SDS011;5176;42.622;25.386;2023-05-10T12:09:10;3.77;;;3.23;;
9438;SDS011;5176;42.622;25.386;2023-05-10T12:11:39;3.17;;;2.93;;
9438;SDS011;5176;42.622;25.386;2023-05-10T12:14:08;3.30;;;3.10;;
9438;SDS011;5176;42.622;25.386;2023-05-10T12:16:37;4.20;;;3.25;;
9438;SDS011;5176;42.622;25.386;2023-05-10T12:19:05;3.00;;;2.80;;
9438;SDS011;5176;42.622;25.386;2023-05-10T12:21:33;3.08;;;2.88;;
9438;SDS011;5176;42.622;25.386;2023-05-10T12:24:02;2.72;;;2.58;;
9438;SDS011;5176;42.622;25.386;2023-05-10T12:26:33;2.45;;;2.25;;
9438;SDS011;5176;42.622;25.386;2023-05-10T12:29:12;2.97;;;2.40;;
9438;SDS011;5176;42.622;25.386;2023-05-10T12:31:53;3.17;;;2.58;;
9438;SDS011;5176;42.622;25.386;2023-05-10T12:34:24;3.15;;;2.80;;
9438;SDS011;5176;42.622;25.386;2023-05-10T12:37:01;4.65;;;2.78;;
9438;SDS011;5176;42.622;25.386;2023-05-10T12:42:19;2.40;;;2.30;;
9438;SDS011;5176;42.622;25.386;2023-05-10T12:44:47;2.80;;;2.60;;
9438;SDS011;5176;42.622;25.386;2023-05-10T12:47:17;2.90;;;2.60;;
9438;SDS011;5176;42.622;25.386;2023-05-10T12:49:46;3.10;;;2.90;;
9438;SDS011;5176;42.622;25.386;2023-05-10T12:52:14;5.18;;;2.90;;
9438;SDS011;5176;42.622;25.386;2023-05-10T12:54:43;3.90;;;2.58;;
9438;SDS011;5176;42.622;25.386;2023-05-10T12:57:12;3.72;;;2.60;;
9438;SDS011;5176;42.622;25.386;2023-05-10T12:59:42;4.47;;;2.25;;
9438;SDS011;5176;42.622;25.386;2023-05-10T13:02:11;3.85;;;2.40;;
9438;SDS011;5176;42.622;25.386;2023-05-10T13:04:40;2.63;;;2.47;;
9438;SDS011;5176;42.622;25.386;2023-05-10T13:07:09;4.10;;;2.47;;
9438;SDS011;5176;42.622;25.386;2023-05-10T13:09:38;2.70;;;2.50;;
9438;SDS011;5176;42.622;25.386;2023-05-10T13:12:08;3.13;;;2.47;;
9438;SDS011;5176;42.622;25.386;2023-05-10T13:14:37;2.80;;;2.60;;
9438;SDS011;5176;42.622;25.386;2023-05-10T13:17:08;3.00;;;2.80;;
9438;SDS011;5176;42.622;25.386;2023-05-10T13:19:38;3.15;;;2.90;;
9438;SDS011;5176;42.622;25.386;2023-05-10T13:22:06;2.70;;;2.53;;
9438;SDS011;5176;42.622;25.386;2023-05-10T13:24:35;2.67;;;2.47;;
9438;SDS011;5176;42.622;25.386;2023-05-10T13:27:04;4.20;;;2.42;;
9438;SDS011;5176;42.622;25.386;2023-05-10T13:29:32;4.38;;;2.17;;
9438;SDS011;5176;42.622;25.386;2023-05-10T13:32:01;2.90;;;2.70;;
9438;SDS011;5176;42.622;25.386;2023-05-10T13:34:31;2.47;;;2.38;;
9438;SDS011;5176;42.622;25.386;2023-05-10T13:37:01;2.75;;;2.55;;
9438;SDS011;5176;42.622;25.386;2023-05-10T13:39:30;6.40;;;2.50;;
9438;SDS011;5176;42.622;25.386;2023-05-10T13:42:01;3.33;;;2.42;;
9438;SDS011;5176;42.622;25.386;2023-05-10T13:44:29;3.13;;;2.40;;
9438;SDS011;5176;42.622;25.386;2023-05-10T13:47:00;3.60;;;2.45;;
9438;SDS011;5176;42.622;25.386;2023-05-10T13:49:28;5.00;;;2.83;;
9438;SDS011;5176;42.622;25.386;2023-05-10T13:52:00;3.60;;;3.28;;
9438;SDS011;5176;42.622;25.386;2023-05-10T13:54:32;2.63;;;2.45;;
9438;SDS011;5176;42.622;25.386;2023-05-10T13:57:02;2.65;;;2.42;;
9438;SDS011;5176;42.622;25.386;2023-05-10T13:59:31;2.95;;;2.63;;
9438;SDS011;5176;42.622;25.386;2023-05-10T14:01:59;2.45;;;2.25;;
9438;SDS011;5176;42.622;25.386;2023-05-10T14:04:33;3.38;;;2.80;;
9438;SDS011;5176;42.622;25.386;2023-05-10T14:07:02;3.15;;;2.40;;
9438;SDS011;5176;42.622;25.386;2023-05-10T14:09:31;2.65;;;2.20;;
9438;SDS011;5176;42.622;25.386;2023-05-10T14:12:00;3.83;;;2.42;;
9438;SDS011;5176;42.622;25.386;2023-05-10T14:14:28;2.55;;;2.35;;
9438;SDS011;5176;42.622;25.386;2023-05-10T14:16:57;5.85;;;2.80;;
9438;SDS011;5176;42.622;25.386;2023-05-10T14:19:27;2.50;;;2.30;;
9438;SDS011;5176;42.622;25.386;2023-05-10T14:22:00;4.30;;;2.53;;
9438;SDS011;5176;42.622;25.386;2023-05-10T14:24:29;3.78;;;2.70;;
9438;SDS011;5176;42.622;25.386;2023-05-10T14:26:58;3.08;;;2.88;;
9438;SDS011;5176;42.622;25.386;2023-05-10T14:29:26;3.15;;;2.92;;
9438;SDS011;5176;42.622;25.386;2023-05-10T14:31:55;2.47;;;2.35;;
9438;SDS011;5176;42.622;25.386;2023-05-10T14:34:24;3.20;;;3.00;;
9438;SDS011;5176;42.622;25.386;2023-05-10T14:36:53;2.58;;;2.38;;
9438;SDS011;5176;42.622;25.386;2023-05-10T14:39:24;2.80;;;2.60;;
9438;SDS011;5176;42.622;25.386;2023-05-10T14:41:55;2.88;;;2.67;;
9438;SDS011;5176;42.622;25.386;2023-05-10T14:44:25;2.90;;;2.70;;
9438;SDS011;5176;42.622;25.386;2023-05-10T14:46:54;3.00;;;2.78;;
9438;SDS011;5176;42.622;25.386;2023-05-10T14:49:23;3.50;;;2.85;;
9438;SDS011;5176;42.622;25.386;2023-05-10T14:51:52;3.88;;;3.08;;
9438;SDS011;5176;42.622;25.386;2023-05-10T14:54:23;5.00;;;3.40;;
9438;SDS011;5176;42.622;25.386;2023-05-10T14:56:52;3.35;;;2.80;;
9438;SDS011;5176;42.622;25.386;2023-05-10T14:59:21;3.33;;;3.03;;
9438;SDS011;5176;42.622;25.386;2023-05-10T15:01:50;5.30;;;3.23;;
9438;SDS011;5176;42.622;25.386;2023-05-10T15:04:18;3.20;;;2.90;;
9438;SDS011;5176;42.622;25.386;2023-05-10T15:06:47;3.42;;;3.15;;
9438;SDS011;5176;42.622;25.386;2023-05-10T15:09:17;3.83;;;3.10;;
9438;SDS011;5176;42.622;25.386;2023-05-10T15:11:47;3.78;;;3.00;;
9438;SDS011;5176;42.622;25.386;2023-05-10T15:14:15;3.43;;;3.10;;
9438;SDS011;5176;42.622;25.386;2023-05-10T15:16:45;3.20;;;3.00;;
9438;SDS011;5176;42.622;25.386;2023-05-10T15:19:12;8.00;;;3.37;;
9438;SDS011;5176;42.622;25.386;2023-05-10T15:21:43;3.50;;;3.20;;
9438;SDS011;5176;42.622;25.386;2023-05-10T15:24:11;4.57;;;3.47;;
9438;SDS011;5176;42.622;25.386;2023-05-10T15:26:41;3.40;;;3.10;;
9438;SDS011;5176;42.622;25.386;2023-05-10T15:29:12;4.53;;;4.20;;
9438;SDS011;5176;42.622;25.386;2023-05-10T15:31:46;3.92;;;3.45;;